Time;durP1;ratioP1;P1;durP2;ratioP2;P2;SDS_P1;SDS_P2;PMS_P1;PMS_P2;Temp;Humidity;BMP_temperature;BMP_pressure;BME280_temperature;BME280_humidity;BME280_pressure;Samples;Min_cycle;Max_cycle;Signal;HPM_P1;HPM_P2
2022/03/31 00:00:35;;;;;;;16.65;9.30;;;9.50;37.00;;;;;;5149588;27;34029;-76
2022/03/31 00:03:04;;;;;;;15.85;9.82;;;9.50;37.20;;;;;;5148967;27;34299;-76
2022/03/31 00:05:30;;;;;;;17.50;10.55;;;9.40;37.10;;;;;;5097153;27;34228;-76
2022/03/31 00:07:58;;;;;;;16.23;10.07;;;9.40;37.10;;;;;;5129828;27;35600;-76
2022/03/31 00:10:34;;;;;;;18.15;10.93;;;9.40;37.20;;;;;;5130716;27;34299;-76
2022/03/31 00:13:04;;;;;;;15.82;10.02;;;9.40;37.20;;;;;;5149925;27;34299;-76
2022/03/31 00:15:30;;;;;;;16.17;9.65;;;9.40;37.20;;;;;;5114595;27;34101;-76
2022/03/31 00:17:58;;;;;;;16.90;10.82;;;9.40;37.10;;;;;;5149322;27;34170;-76
2022/03/31 00:20:25;;;;;;;17.45;10.90;;;9.40;37.00;;;;;;5131022;27;34147;-76
2022/03/31 00:22:51;;;;;;;13.43;9.48;;;9.40;36.90;;;;;;5149292;27;34220;-76
2022/03/31 00:25:17;;;;;;;17.48;10.40;;;9.40;37.10;;;;;;5149398;27;33699;-77
2022/03/31 00:27:43;;;;;;;16.25;9.63;;;9.30;37.10;;;;;;5148478;27;33987;-76
2022/03/31 00:30:13;;;;;;;16.45;10.27;;;9.40;37.10;;;;;;5129696;27;34275;-76
2022/03/31 00:32:40;;;;;;;12.43;9.20;;;9.30;37.20;;;;;;5112712;27;34459;-76
2022/03/31 00:35:08;;;;;;;20.65;9.82;;;9.40;37.10;;;;;;5130255;27;34308;-76
2022/03/31 00:37:34;;;;;;;16.63;10.05;;;9.30;37.20;;;;;;5113229;27;36665;-76
2022/03/31 00:40:00;;;;;;;16.75;10.15;;;9.30;37.10;;;;;;5148687;27;33962;-76
2022/03/31 00:42:26;;;;;;;15.82;8.93;;;9.30;37.20;;;;;;5130138;27;34092;-76
2022/03/31 00:44:53;;;;;;;15.07;9.38;;;9.40;37.10;;;;;;5148676;27;34550;-76
2022/03/31 00:47:19;;;;;;;16.10;10.15;;;9.30;37.20;;;;;;5112197;27;35548;-76
2022/03/31 00:49:46;;;;;;;13.70;10.02;;;9.30;37.10;;;;;;5148689;27;34104;-76
2022/03/31 00:52:12;;;;;;;13.68;9.60;;;9.30;37.10;;;;;;5129558;27;34250;-76
2022/03/31 00:54:40;;;;;;;15.00;9.75;;;9.30;37.10;;;;;;5112866;27;34035;-76
2022/03/31 00:57:10;;;;;;;14.15;8.82;;;9.30;37.30;;;;;;5112194;27;36242;-76
2022/03/31 00:59:37;;;;;;;13.57;9.50;;;9.30;37.40;;;;;;5129469;27;33814;-76
2022/03/31 01:02:04;;;;;;;16.88;9.95;;;9.30;37.40;;;;;;5148625;27;34111;-76
2022/03/31 01:04:30;;;;;;;13.52;9.43;;;9.30;37.40;;;;;;5129583;27;34217;-76
2022/03/31 01:06:57;;;;;;;16.23;9.98;;;9.30;37.40;;;;;;5128480;27;35649;-76
2022/03/31 01:09:23;;;;;;;15.77;9.77;;;9.30;37.50;;;;;;5113094;27;34090;-76
2022/03/31 01:11:49;;;;;;;14.55;9.82;;;9.30;37.40;;;;;;5129750;27;34243;-76
2022/03/31 01:14:15;;;;;;;16.02;9.98;;;9.30;37.30;;;;;;5129441;27;34086;-76
2022/03/31 01:16:41;;;;;;;18.08;9.73;;;9.30;37.20;;;;;;5147612;27;34958;-76
2022/03/31 01:19:09;;;;;;;12.43;9.18;;;9.30;37.20;;;;;;5129614;27;34178;-76
2022/03/31 01:21:40;;;;;;;16.15;9.25;;;9.30;37.30;;;;;;5112357;27;34065;-76
2022/03/31 01:24:07;;;;;;;17.15;10.27;;;9.20;37.60;;;;;;5128926;27;34190;-76
2022/03/31 01:26:35;;;;;;;15.20;8.90;;;9.20;37.30;;;;;;5112168;27;35816;-76
2022/03/31 01:29:01;;;;;;;12.52;8.73;;;9.20;37.30;;;;;;5111922;27;34393;-76
2022/03/31 01:31:27;;;;;;;14.32;9.18;;;9.20;37.40;;;;;;5111622;27;34209;-76
2022/03/31 01:33:54;;;;;;;15.40;9.48;;;9.20;37.40;;;;;;5129164;27;34385;-76
2022/03/31 01:36:20;;;;;;;17.83;9.93;;;9.10;37.40;;;;;;5128670;27;35840;-76
2022/03/31 01:38:47;;;;;;;15.68;9.57;;;9.10;37.50;;;;;;5128765;27;34148;-76
2022/03/31 01:41:13;;;;;;;14.85;9.13;;;9.10;37.50;;;;;;5128953;27;34228;-76
2022/03/31 01:43:39;;;;;;;14.95;9.52;;;9.10;37.40;;;;;;5129295;27;34048;-76
2022/03/31 01:46:08;;;;;;;15.18;9.30;;;9.10;37.60;;;;;;5128326;27;35779;-76
2022/03/31 01:48:35;;;;;;;18.02;9.65;;;9.10;37.70;;;;;;5129328;27;34206;-76
2022/03/31 01:51:04;;;;;;;15.32;9.80;;;9.00;37.60;;;;;;5128586;27;34239;-76
2022/03/31 01:53:32;;;;;;;13.55;9.32;;;9.00;37.70;;;;;;5129314;27;34008;-76
2022/03/31 01:55:58;;;;;;;13.25;9.43;;;9.00;37.70;;;;;;5129322;27;35514;-76
2022/03/31 01:58:24;;;;;;;13.23;9.02;;;8.90;37.70;;;;;;5112173;27;34274;-76
2022/03/31 02:00:50;;;;;;;17.33;10.30;;;8.90;37.70;;;;;;5129825;27;34222;-76
2022/03/31 02:03:17;;;;;;;12.90;8.68;;;8.90;37.70;;;;;;5129109;27;34159;-76
2022/03/31 02:05:43;;;;;;;12.90;8.88;;;8.90;37.70;;;;;;5111826;27;36846;-76
2022/03/31 02:08:09;;;;;;;15.52;9.20;;;8.80;37.70;;;;;;5111806;27;34083;-76
2022/03/31 02:10:35;;;;;;;15.25;9.30;;;8.80;37.80;;;;;;5112204;27;34103;-76
2022/03/31 02:13:02;;;;;;;12.38;8.43;;;8.80;37.80;;;;;;5129102;27;34023;-76
2022/03/31 02:15:29;;;;;;;15.77;9.20;;;8.70;37.80;;;;;;5128845;27;36349;-76
2022/03/31 02:17:56;;;;;;;16.08;9.93;;;8.70;37.90;;;;;;5130077;27;34128;-76
2022/03/31 02:20:24;;;;;;;14.63;9.10;;;8.70;37.90;;;;;;5132384;27;34510;-81
2022/03/31 02:22:51;;;;;;;11.57;8.07;;;8.70;37.90;;;;;;5133104;27;34132;-77
2022/03/31 02:25:17;;;;;;;14.00;8.82;;;8.60;37.90;;;;;;5150419;27;34170;-76
2022/03/31 02:27:43;;;;;;;15.07;9.25;;;8.50;37.90;;;;;;5151774;27;33995;-76
2022/03/31 02:30:09;;;;;;;15.52;9.73;;;8.50;37.90;;;;;;5112407;27;34288;-76
2022/03/31 02:32:37;;;;;;;15.30;9.93;;;8.40;37.90;;;;;;5130392;27;34245;-76
2022/03/31 02:35:05;;;;;;;13.68;9.02;;;8.40;37.80;;;;;;5113280;27;36054;-76
2022/03/31 02:37:31;;;;;;;13.55;8.60;;;8.30;37.80;;;;;;5112833;27;34060;-76
2022/03/31 02:39:58;;;;;;;14.38;9.15;;;8.20;37.90;;;;;;5131155;27;34045;-76
2022/03/31 02:42:24;;;;;;;13.82;8.65;;;8.20;37.90;;;;;;5129921;27;34324;-76
2022/03/31 02:44:50;;;;;;;13.90;8.95;;;8.10;38.00;;;;;;5129683;27;36343;-76
2022/03/31 02:47:16;;;;;;;14.35;8.40;;;8.10;38.00;;;;;;5129531;27;34294;-76
2022/03/31 02:49:43;;;;;;;15.10;8.68;;;8.00;38.00;;;;;;5128629;27;34196;-76
2022/03/31 02:52:09;;;;;;;13.27;8.00;;;8.10;38.00;;;;;;5128813;27;34102;-76
2022/03/31 02:57:18;;;;;;;13.85;8.80;;;8.00;38.00;;;;;;5129056;27;34023;-76
2022/03/31 02:59:45;;;;;;;13.30;8.50;;;8.00;38.00;;;;;;5128791;27;34110;-76
2022/03/31 03:02:11;;;;;;;14.65;9.13;;;8.00;38.10;;;;;;5094632;27;34274;-76
2022/03/31 03:04:36;;;;;;;12.32;8.32;;;8.00;38.10;;;;;;5110893;27;35762;-76
2022/03/31 03:07:03;;;;;;;17.17;8.95;;;8.00;38.10;;;;;;5128021;27;34166;-76
2022/03/31 03:09:29;;;;;;;11.93;8.55;;;7.90;38.20;;;;;;5111502;27;34135;-76
2022/03/31 03:11:55;;;;;;;12.98;8.50;;;7.90;38.20;;;;;;5128310;27;34487;-76
2022/03/31 03:14:21;;;;;;;11.95;8.07;;;8.00;38.10;;;;;;5128305;27;34258;-76
2022/03/31 03:16:47;;;;;;;13.40;8.35;;;7.90;38.10;;;;;;5129622;27;34090;-76
2022/03/31 03:19:13;;;;;;;14.23;9.05;;;7.90;38.10;;;;;;5128414;27;34149;-75
2022/03/31 03:21:39;;;;;;;11.85;8.43;;;7.80;38.20;;;;;;5127657;27;34329;-76
2022/03/31 03:24:06;;;;;;;13.50;9.38;;;7.80;38.50;;;;;;5127715;27;36116;-76
2022/03/31 03:26:31;;;;;;;13.00;8.40;;;7.80;38.50;;;;;;5128717;27;34080;-76
2022/03/31 03:28:58;;;;;;;12.27;8.85;;;7.70;38.50;;;;;;5127545;27;34065;-76
2022/03/31 03:31:24;;;;;;;17.98;9.48;;;7.70;38.60;;;;;;5129023;27;34542;-76
2022/03/31 03:33:50;;;;;;;13.02;8.90;;;7.80;38.60;;;;;;5130441;27;34403;-76
2022/03/31 03:36:16;;;;;;;14.25;9.43;;;7.70;38.60;;;;;;5111298;27;34054;-77
2022/03/31 03:38:43;;;;;;;13.20;9.35;;;7.80;38.60;;;;;;5128726;27;34339;-77
2022/03/31 03:41:11;;;;;;;13.40;8.98;;;7.80;38.70;;;;;;5128800;27;34407;-76
2022/03/31 03:43:37;;;;;;;13.90;8.80;;;7.80;38.80;;;;;;5110443;27;36034;-76
2022/03/31 03:46:04;;;;;;;14.30;9.38;;;7.80;38.80;;;;;;5128240;27;34191;-76
2022/03/31 03:48:30;;;;;;;12.18;9.07;;;7.80;39.00;;;;;;5129492;27;34223;-76
2022/03/31 03:50:56;;;;;;;14.23;9.43;;;7.80;39.00;;;;;;5111025;27;34174;-76
2022/03/31 03:53:22;;;;;;;15.82;9.43;;;7.80;39.00;;;;;;5110536;27;35900;-76
2022/03/31 03:55:49;;;;;;;16.70;9.30;;;7.80;39.00;;;;;;5111518;27;34142;-76
2022/03/31 03:58:15;;;;;;;17.40;9.75;;;7.80;39.00;;;;;;5128772;27;34094;-76
2022/03/31 04:00:40;;;;;;;16.88;9.13;;;7.80;38.90;;;;;;5110561;27;34230;-76
2022/03/31 04:03:07;;;;;;;15.52;9.77;;;7.90;38.90;;;;;;5126183;27;36305;-76
2022/03/31 04:05:33;;;;;;;15.25;9.70;;;7.90;39.00;;;;;;5129375;27;34338;-76
2022/03/31 04:07:59;;;;;;;13.80;9.35;;;7.90;38.80;;;;;;5128241;27;34098;-76
2022/03/31 04:10:26;;;;;;;12.88;8.85;;;7.90;38.90;;;;;;5110130;27;34264;-76
2022/03/31 04:12:51;;;;;;;15.98;10.00;;;7.90;38.80;;;;;;5127120;27;35778;-76
2022/03/31 04:15:17;;;;;;;14.40;9.38;;;8.00;38.80;;;;;;5110337;27;34418;-76
2022/03/31 04:17:43;;;;;;;14.77;9.65;;;8.00;38.90;;;;;;5128057;27;34039;-76
2022/03/31 04:20:11;;;;;;;15.75;8.93;;;8.00;39.00;;;;;;5127023;27;34187;-75
2022/03/31 04:22:37;;;;;;;17.27;9.75;;;8.00;38.90;;;;;;5128435;27;34359;-76
2022/03/31 04:25:07;;;;;;;15.18;9.35;;;8.00;38.80;;;;;;5127145;27;34103;-76
2022/03/31 04:27:35;;;;;;;13.18;9.40;;;8.00;38.90;;;;;;5127380;27;34285;-76
2022/03/31 04:30:03;;;;;;;14.43;9.75;;;8.00;38.80;;;;;;5109198;27;34319;-76
2022/03/31 04:32:29;;;;;;;16.48;9.60;;;8.10;38.80;;;;;;5127873;27;35404;-76
2022/03/31 04:34:55;;;;;;;15.38;8.95;;;8.10;38.90;;;;;;5110889;27;34466;-76
2022/03/31 04:37:22;;;;;;;15.75;9.55;;;8.10;38.80;;;;;;5127275;27;34335;-76
2022/03/31 04:39:47;;;;;;;17.77;10.45;;;8.10;38.80;;;;;;5127364;27;34142;-76
2022/03/31 04:42:13;;;;;;;15.77;9.77;;;8.10;38.90;;;;;;5128728;27;34095;-76
2022/03/31 04:44:39;;;;;;;15.25;9.85;;;8.10;38.80;;;;;;5127533;27;34193;-76
2022/03/31 04:47:06;;;;;;;14.55;9.70;;;8.10;38.70;;;;;;5127514;27;34181;-76
2022/03/31 04:49:33;;;;;;;15.23;9.57;;;8.20;38.60;;;;;;5127593;27;34099;-76
2022/03/31 04:51:59;;;;;;;14.93;9.20;;;8.20;38.80;;;;;;5127916;27;34393;-76
2022/03/31 04:54:25;;;;;;;15.43;9.02;;;8.20;38.70;;;;;;5126867;27;34217;-76
2022/03/31 04:56:51;;;;;;;17.23;8.93;;;8.20;38.70;;;;;;5126635;27;34071;-76
2022/03/31 04:59:17;;;;;;;15.00;9.60;;;8.20;38.60;;;;;;5108949;27;34482;-76
2022/03/31 05:01:44;;;;;;;14.45;9.48;;;8.20;38.70;;;;;;5126421;27;36670;-76
2022/03/31 05:04:10;;;;;;;16.50;9.50;;;8.20;38.80;;;;;;5126253;27;34237;-76
2022/03/31 05:06:36;;;;;;;13.85;8.82;;;8.20;38.80;;;;;;5126598;27;33983;-76
2022/03/31 05:09:03;;;;;;;16.98;10.15;;;8.30;38.70;;;;;;5126095;27;34012;-76
2022/03/31 05:11:29;;;;;;;18.77;9.68;;;8.20;38.60;;;;;;5125570;27;36505;-76
2022/03/31 05:13:55;;;;;;;15.48;9.60;;;8.30;38.80;;;;;;5125811;27;34356;-76
2022/03/31 05:16:21;;;;;;;15.13;9.15;;;8.20;38.70;;;;;;5125601;27;34083;-76
2022/03/31 05:18:47;;;;;;;15.77;9.60;;;8.20;38.80;;;;;;5125652;27;34428;-76
2022/03/31 05:21:14;;;;;;;15.98;10.18;;;8.30;38.80;;;;;;5125715;27;35977;-76
2022/03/31 05:23:40;;;;;;;18.73;9.82;;;8.20;38.50;;;;;;5125910;27;34081;-75
2022/03/31 05:26:06;;;;;;;15.45;9.63;;;8.20;38.80;;;;;;5125861;27;34203;-76
2022/03/31 05:28:32;;;;;;;17.83;10.05;;;8.30;38.80;;;;;;5127767;27;34047;-76
2022/03/31 05:30:58;;;;;;;19.20;9.98;;;8.30;38.80;;;;;;5129354;27;35559;-76
2022/03/31 05:33:24;;;;;;;16.63;10.57;;;8.30;38.90;;;;;;5129139;27;34152;-76
2022/03/31 05:35:50;;;;;;;14.63;9.90;;;8.30;39.00;;;;;;5129121;27;34235;-76
2022/03/31 05:38:16;;;;;;;17.40;10.35;;;8.30;39.00;;;;;;5129034;27;34525;-76
2022/03/31 05:40:42;;;;;;;16.98;9.68;;;8.30;39.00;;;;;;5111985;27;35472;-76
2022/03/31 05:43:08;;;;;;;15.65;9.82;;;8.30;38.90;;;;;;5111891;27;34202;-76
2022/03/31 05:45:34;;;;;;;17.23;10.75;;;8.30;38.90;;;;;;5112909;27;34294;-76
2022/03/31 05:48:03;;;;;;;19.75;11.20;;;8.30;38.90;;;;;;5112594;27;34047;-76
2022/03/31 05:50:29;;;;;;;17.17;10.70;;;8.30;38.90;;;;;;5147514;27;35088;-75
2022/03/31 05:52:55;;;;;;;15.15;10.23;;;8.30;39.00;;;;;;5148977;27;34070;-76
2022/03/31 05:55:21;;;;;;;15.63;10.75;;;8.30;39.00;;;;;;5115471;27;34107;-76
2022/03/31 05:57:47;;;;;;;18.58;10.27;;;8.30;38.90;;;;;;5115469;27;34193;-76
2022/03/31 06:00:17;;;;;;;20.08;10.43;;;8.30;38.80;;;;;;5132080;27;36677;-76
2022/03/31 06:02:44;;;;;;;17.92;11.32;;;8.30;39.00;;;;;;5116161;27;34238;-76
2022/03/31 06:05:11;;;;;;;19.20;10.82;;;8.30;39.00;;;;;;5115414;27;34100;-76
2022/03/31 06:07:37;;;;;;;18.85;11.85;;;8.40;38.90;;;;;;5115617;27;34302;-77
2022/03/31 06:10:04;;;;;;;19.17;11.27;;;8.40;38.90;;;;;;5114719;27;36424;-76
2022/03/31 06:12:30;;;;;;;19.30;12.38;;;8.40;38.80;;;;;;5132717;27;34024;-76
2022/03/31 06:14:56;;;;;;;16.95;10.82;;;8.40;38.80;;;;;;5132534;27;34184;-76
2022/03/31 06:17:23;;;;;;;19.50;11.82;;;8.40;39.00;;;;;;5115738;27;34028;-76
2022/03/31 06:19:49;;;;;;;20.63;11.93;;;8.40;39.00;;;;;;5151199;27;34430;-76
2022/03/31 06:22:15;;;;;;;19.70;11.60;;;8.40;39.10;;;;;;5132506;27;34446;-76
2022/03/31 06:24:41;;;;;;;18.95;11.98;;;8.40;39.20;;;;;;5131665;27;34434;-76
2022/03/31 06:27:09;;;;;;;20.38;12.30;;;8.40;39.20;;;;;;5150518;27;34334;-75
2022/03/31 06:29:35;;;;;;;20.38;11.60;;;8.50;39.50;;;;;;5114130;27;36582;-76
2022/03/31 06:32:02;;;;;;;19.85;11.88;;;8.40;39.40;;;;;;5132347;27;34029;-76
2022/03/31 06:34:28;;;;;;;17.42;11.38;;;8.40;39.50;;;;;;5114489;27;34356;-76
2022/03/31 06:36:55;;;;;;;18.83;10.45;;;8.40;39.70;;;;;;5131938;27;34240;-77
2022/03/31 06:39:21;;;;;;;22.45;12.32;;;8.40;40.00;;;;;;5116296;27;35736;-78
2022/03/31 06:41:47;;;;;;;19.73;11.98;;;8.40;39.90;;;;;;5132054;27;34272;-75
2022/03/31 06:44:15;;;;;;;19.20;12.48;;;8.40;40.00;;;;;;5131440;27;34124;-78
2022/03/31 06:46:42;;;;;;;19.58;12.73;;;8.40;40.10;;;;;;5131467;27;34632;-75
2022/03/31 06:49:09;;;;;;;23.17;12.57;;;8.40;40.10;;;;;;5130017;27;36412;-75
2022/03/31 06:51:35;;;;;;;20.52;12.57;;;8.40;40.10;;;;;;5149791;27;34475;-75
2022/03/31 06:54:03;;;;;;;22.35;11.82;;;8.50;40.20;;;;;;5149723;27;34239;-74
2022/03/31 06:56:29;;;;;;;20.60;12.23;;;8.50;40.20;;;;;;5149539;27;34420;-74
2022/03/31 06:58:55;;;;;;;21.27;13.20;;;8.40;40.20;;;;;;5130655;27;36329;-74
2022/03/31 07:01:22;;;;;;;27.17;13.20;;;8.50;40.30;;;;;;5130092;27;34055;-74
2022/03/31 07:03:48;;;;;;;19.15;12.45;;;8.50;40.50;;;;;;5113075;27;34251;-75
2022/03/31 07:06:14;;;;;;;19.70;12.48;;;8.50;40.70;;;;;;5130402;27;34513;-73
2022/03/31 07:08:40;;;;;;;24.73;13.13;;;8.40;40.60;;;;;;5149239;27;34831;-73
2022/03/31 07:11:08;;;;;;;22.63;13.35;;;8.40;40.80;;;;;;5149059;27;34181;-73
2022/03/31 07:13:34;;;;;;;20.73;13.00;;;8.40;40.90;;;;;;5113304;27;34126;-74
2022/03/31 07:16:05;;;;;;;24.13;13.15;;;8.40;40.80;;;;;;5148219;27;34236;-73
2022/03/31 07:18:31;;;;;;;23.45;13.60;;;8.40;41.00;;;;;;5129436;27;35712;-73
2022/03/31 07:20:58;;;;;;;22.23;13.85;;;8.40;41.20;;;;;;5129435;27;34540;-73
2022/03/31 07:23:25;;;;;;;23.13;13.15;;;8.40;41.20;;;;;;5129046;27;34288;-73
2022/03/31 07:25:53;;;;;;;22.50;13.77;;;8.40;41.50;;;;;;5129403;27;34130;-73
2022/03/31 07:28:19;;;;;;;21.55;12.57;;;8.40;41.60;;;;;;5129358;27;36310;-73
2022/03/31 07:30:47;;;;;;;24.25;12.77;;;8.50;41.70;;;;;;5129153;27;34095;-74
2022/03/31 07:33:13;;;;;;;25.85;13.85;;;8.50;41.80;;;;;;5147425;27;34420;-74
2022/03/31 07:35:42;;;;;;;23.10;12.82;;;8.50;41.80;;;;;;5130154;27;34396;-73
2022/03/31 07:38:08;;;;;;;22.08;14.05;;;8.60;41.70;;;;;;5128434;27;36039;-73
2022/03/31 07:40:37;;;;;;;22.55;14.02;;;8.60;41.70;;;;;;5129474;27;34288;-74
2022/03/31 07:43:04;;;;;;;23.77;13.27;;;8.60;41.70;;;;;;5129572;27;34395;-74
2022/03/31 07:45:31;;;;;;;24.42;13.32;;;8.70;41.70;;;;;;5112630;27;34088;-74
2022/03/31 07:47:57;;;;;;;22.02;14.10;;;8.70;41.70;;;;;;5111885;27;35667;-74
2022/03/31 07:50:23;;;;;;;24.38;14.10;;;8.70;41.50;;;;;;5147504;27;34300;-74
2022/03/31 07:52:49;;;;;;;21.85;13.65;;;8.80;41.50;;;;;;5147962;27;34268;-74
2022/03/31 07:55:17;;;;;;;22.45;13.18;;;8.80;41.50;;;;;;5147572;27;34114;-74
2022/03/31 07:57:44;;;;;;;27.15;14.90;;;8.90;41.70;;;;;;5111628;27;35856;-74
2022/03/31 08:00:12;;;;;;;25.88;14.68;;;8.90;41.50;;;;;;5129223;27;34080;-74
2022/03/31 08:02:41;;;;;;;23.58;14.02;;;9.00;41.70;;;;;;5094965;27;34087;-74
2022/03/31 08:05:09;;;;;;;22.02;13.48;;;9.00;41.50;;;;;;5128582;27;34502;-74
2022/03/31 08:07:36;;;;;;;21.83;12.95;;;9.10;41.30;;;;;;5128766;27;36164;-74
2022/03/31 08:10:04;;;;;;;20.05;12.82;;;9.20;41.20;;;;;;5128919;27;34150;-75
2022/03/31 08:12:30;;;;;;;26.67;14.25;;;9.20;41.30;;;;;;5112263;27;34358;-74
2022/03/31 08:14:56;;;;;;;19.67;12.65;;;9.20;41.30;;;;;;5146977;27;34287;-74
2022/03/31 08:17:23;;;;;;;24.48;12.70;;;9.30;41.20;;;;;;5128332;27;35901;-74
2022/03/31 08:19:49;;;;;;;20.15;13.25;;;9.30;41.10;;;;;;5147285;27;34137;-74
2022/03/31 08:22:17;;;;;;;20.80;13.00;;;9.30;41.00;;;;;;5128691;27;34075;-74
2022/03/31 08:24:44;;;;;;;25.52;13.40;;;9.40;41.00;;;;;;5128514;27;34395;-73
2022/03/31 08:27:10;;;;;;;21.02;12.18;;;9.40;41.10;;;;;;5147614;27;35333;-73
2022/03/31 08:29:37;;;;;;;21.38;13.52;;;9.40;41.00;;;;;;5147088;27;34200;-74
2022/03/31 08:32:04;;;;;;;20.42;12.60;;;9.40;40.90;;;;;;5128909;27;34134;-74
2022/03/31 08:34:30;;;;;;;24.50;13.65;;;9.40;40.80;;;;;;5095344;27;34108;-73
2022/03/31 08:36:56;;;;;;;20.92;12.55;;;9.40;40.90;;;;;;5146912;27;35324;-74
2022/03/31 08:39:22;;;;;;;20.40;12.27;;;9.40;40.90;;;;;;5128136;27;34090;-74
2022/03/31 08:41:48;;;;;;;21.25;12.90;;;9.50;41.00;;;;;;5146537;27;34177;-73
2022/03/31 08:44:18;;;;;;;18.63;11.93;;;9.50;41.00;;;;;;5127958;27;34473;-74
2022/03/31 08:46:45;;;;;;;19.08;12.80;;;9.50;41.00;;;;;;5128585;27;35669;-74
2022/03/31 08:49:11;;;;;;;17.60;12.05;;;9.50;40.80;;;;;;5111208;27;34156;-74
2022/03/31 08:51:37;;;;;;;19.80;12.75;;;9.50;40.90;;;;;;5128282;27;34198;-74
2022/03/31 08:54:05;;;;;;;20.20;12.43;;;9.60;40.80;;;;;;5128034;27;34108;-74
2022/03/31 08:56:31;;;;;;;19.10;11.50;;;9.60;40.80;;;;;;5128028;27;35864;-74
2022/03/31 08:58:57;;;;;;;18.75;11.35;;;9.60;40.80;;;;;;5128525;27;34071;-74
2022/03/31 09:01:23;;;;;;;21.30;11.35;;;9.60;40.70;;;;;;5146431;27;34498;-74
2022/03/31 09:03:49;;;;;;;20.15;12.38;;;9.60;40.60;;;;;;5128257;27;34306;-73
2022/03/31 09:06:24;;;;;;;18.77;11.60;;;9.60;40.50;;;;;;5128135;27;35758;-74
2022/03/31 09:09:05;;;;;;;21.05;12.30;;;9.60;41.10;;;;;;5146680;27;34184;-74
2022/03/31 09:11:34;;;;;;;20.02;11.80;;;9.60;42.80;;;;;;5146347;27;34165;-74
2022/03/31 09:14:03;;;;;;;19.27;11.90;;;9.60;41.40;;;;;;5111242;27;34420;-74
2022/03/31 09:16:34;;;;;;;20.58;12.15;;;9.70;40.80;;;;;;5127284;27;35853;-74
2022/03/31 09:19:03;;;;;;;18.58;11.27;;;9.80;40.40;;;;;;5112124;27;34134;-74
2022/03/31 09:21:30;;;;;;;18.98;11.52;;;9.80;39.70;;;;;;5093820;27;34234;-74
2022/03/31 09:23:57;;;;;;;19.63;11.63;;;9.70;39.80;;;;;;5128046;27;34332;-74
2022/03/31 09:26:27;;;;;;;19.15;11.68;;;9.70;39.80;;;;;;5127230;27;35530;-74
2022/03/31 09:28:55;;;;;;;18.67;11.05;;;9.70;39.50;;;;;;5126498;27;34177;-74
2022/03/31 09:31:23;;;;;;;19.02;10.85;;;9.70;39.60;;;;;;5127885;27;34251;-74
2022/03/31 09:33:55;;;;;;;20.27;11.38;;;9.70;39.50;;;;;;5145880;27;34154;-74
2022/03/31 09:36:22;;;;;;;18.98;11.38;;;9.70;39.60;;;;;;5146153;27;34376;-74
2022/03/31 09:38:55;;;;;;;17.92;10.57;;;9.70;39.60;;;;;;5127860;27;34198;-74
2022/03/31 09:41:25;;;;;;;16.55;10.30;;;9.70;39.80;;;;;;5110669;27;34197;-74
2022/03/31 09:43:53;;;;;;;13.38;9.43;;;9.60;39.60;;;;;;5128772;27;34127;-75
2022/03/31 09:46:23;;;;;;;12.77;9.60;;;9.60;39.50;;;;;;5129184;27;36405;-74
2022/03/31 09:48:51;;;;;;;11.40;8.32;;;9.50;39.70;;;;;;5147202;27;34254;-75
2022/03/31 09:51:19;;;;;;;9.43;6.90;;;9.40;39.40;;;;;;5147638;27;34148;-75
2022/03/31 09:53:48;;;;;;;8.85;6.70;;;9.20;39.20;;;;;;5128941;27;34229;-74
2022/03/31 09:56:17;;;;;;;10.65;7.13;;;9.10;39.30;;;;;;5146090;27;34708;-75
2022/03/31 09:58:46;;;;;;;8.85;6.50;;;9.00;39.30;;;;;;5129570;27;34095;-74
2022/03/31 10:01:14;;;;;;;7.25;5.72;;;8.90;39.50;;;;;;5111914;27;34466;-75
2022/03/31 10:03:40;;;;;;;8.55;6.53;;;8.80;39.50;;;;;;5112462;27;34143;-75
2022/03/31 10:06:07;;;;;;;9.55;6.82;;;8.70;39.60;;;;;;5128672;27;36777;-74
2022/03/31 10:08:39;;;;;;;7.63;6.03;;;8.70;39.50;;;;;;5110311;27;34290;-75
2022/03/31 10:11:07;;;;;;;8.77;6.78;;;8.70;39.80;;;;;;5111066;27;34394;-75
2022/03/31 10:13:45;;;;;;;7.95;5.55;;;8.60;39.50;;;;;;5127216;27;34024;-75
2022/03/31 10:16:17;;;;;;;7.40;5.88;;;8.60;39.70;;;;;;5127259;27;35623;-74
2022/03/31 10:18:47;;;;;;;6.75;5.32;;;8.60;39.60;;;;;;5110630;27;34131;-75
2022/03/31 10:21:24;;;;;;;7.72;5.47;;;8.60;39.80;;;;;;5110722;27;34317;-75
2022/03/31 10:26:33;;;;;;;7.07;5.43;;;8.50;39.60;;;;;;5144396;27;34766;-75
2022/03/31 10:29:01;;;;;;;7.60;5.80;;;8.50;39.60;;;;;;5119867;27;34383;-75
2022/03/31 10:31:36;;;;;;;8.77;5.90;;;8.50;39.60;;;;;;5086261;28;34187;-75
2022/03/31 10:34:04;;;;;;;7.93;5.97;;;8.60;40.20;;;;;;5099745;28;34096;-75
2022/03/31 10:36:43;;;;;;;8.55;5.80;;;8.50;39.80;;;;;;5069880;28;35679;-75
2022/03/31 10:39:17;;;;;;;7.47;5.45;;;8.50;40.40;;;;;;5104349;28;34237;-75
2022/03/31 10:41:44;;;;;;;7.45;5.80;;;8.50;40.60;;;;;;5083339;28;34310;-75
2022/03/31 10:44:18;;;;;;;7.43;5.53;;;8.40;39.60;;;;;;5107026;28;34064;-75
2022/03/31 10:46:47;;;;;;;7.30;5.43;;;8.50;40.40;;;;;;5099958;28;35642;-75
2022/03/31 10:49:19;;;;;;;7.07;5.13;;;8.40;39.80;;;;;;5089412;28;34368;-75
2022/03/31 10:51:46;;;;;;;7.40;5.60;;;8.40;39.80;;;;;;5100536;28;34074;-75
2022/03/31 10:54:25;;;;;;;6.57;4.68;;;8.40;39.60;;;;;;5089433;27;34059;-75
2022/03/31 10:57:08;;;;;;;6.45;4.90;;;8.40;40.50;;;;;;5107674;28;34226;-76
2022/03/31 10:59:36;;;;;;;5.68;4.68;;;8.30;40.50;;;;;;5098499;28;34156;-74
2022/03/31 11:02:20;;;;;;;7.40;5.47;;;8.30;39.80;;;;;;5106103;28;34366;-74
2022/03/31 11:04:50;;;;;;;7.18;5.18;;;8.30;41.10;;;;;;5089460;28;34058;-74
2022/03/31 11:07:24;;;;;;;7.32;5.35;;;8.40;39.90;;;;;;5082346;27;35733;-74
2022/03/31 11:10:11;;;;;;;7.32;5.10;;;8.30;40.00;;;;;;5093792;27;34157;-74
2022/03/31 11:12:39;;;;;;;6.43;5.00;;;8.40;40.60;;;;;;5085085;28;34263;-74
2022/03/31 11:15:15;;;;;;;5.38;4.82;;;8.40;39.50;;;;;;5068429;28;35095;-73
2022/03/31 11:17:42;;;;;;;7.18;5.30;;;8.40;40.00;;;;;;5083522;28;35736;-74
2022/03/31 11:20:19;;;;;;;6.25;5.00;;;8.40;39.70;;;;;;5086996;28;34094;-75
2022/03/31 11:22:48;;;;;;;6.63;4.72;;;8.40;40.10;;;;;;5083210;28;34144;-74
2022/03/31 11:25:15;;;;;;;8.80;5.57;;;8.40;39.30;;;;;;5088608;28;34183;-75
2022/03/31 11:27:42;;;;;;;7.65;5.45;;;8.40;39.60;;;;;;5098758;28;35907;-74
2022/03/31 11:30:13;;;;;;;8.18;5.25;;;8.40;39.80;;;;;;5088219;28;34088;-75
2022/03/31 11:32:41;;;;;;;5.80;4.63;;;8.40;39.60;;;;;;5081436;28;33988;-74
2022/03/31 11:35:13;;;;;;;6.50;4.60;;;8.50;39.50;;;;;;5105612;28;34345;-74
2022/03/31 11:37:50;;;;;;;6.45;4.70;;;8.50;39.90;;;;;;5097836;28;36897;-74
2022/03/31 11:40:21;;;;;;;6.70;4.80;;;8.60;40.00;;;;;;5101798;27;33843;-74
2022/03/31 11:42:50;;;;;;;7.35;5.35;;;8.70;39.90;;;;;;5082167;28;34271;-74
2022/03/31 11:45:34;;;;;;;6.35;4.35;;;8.80;39.30;;;;;;5105738;28;34473;-75
2022/03/31 11:48:07;;;;;;;5.78;4.32;;;8.90;40.10;;;;;;5101356;28;36621;-74
2022/03/31 11:53:25;;;;;;;4.95;3.80;;;9.10;39.30;;;;;;5120701;27;34066;-75
2022/03/31 11:56:12;;;;;;;4.75;4.22;;;9.00;38.50;;;;;;5100172;28;34429;-75
2022/03/31 11:58:49;;;;;;;4.57;3.78;;;9.10;38.80;;;;;;5106392;27;34592;-75
2022/03/31 12:01:19;;;;;;;4.85;3.92;;;9.10;39.50;;;;;;5103655;28;34452;-76
2022/03/31 12:03:45;;;;;;;4.95;3.80;;;9.20;38.70;;;;;;5106868;28;34233;-75
2022/03/31 12:06:13;;;;;;;5.18;3.90;;;9.20;38.30;;;;;;5103043;28;34146;-75
2022/03/31 12:08:40;;;;;;;4.43;3.75;;;9.20;38.30;;;;;;5097167;28;35817;-74
2022/03/31 12:11:07;;;;;;;7.35;4.63;;;9.20;38.30;;;;;;5106698;27;34183;-75
2022/03/31 12:13:51;;;;;;;4.70;3.72;;;9.10;38.10;;;;;;5083211;27;34122;-75
2022/03/31 12:16:18;;;;;;;5.40;4.18;;;9.10;38.40;;;;;;5084895;28;34244;-75
2022/03/31 12:18:51;;;;;;;5.85;4.22;;;9.10;38.20;;;;;;5078105;28;34212;-75
2022/03/31 12:21:17;;;;;;;5.95;4.10;;;9.10;38.40;;;;;;5088791;28;34146;-75
2022/03/31 12:23:45;;;;;;;4.72;3.70;;;9.10;38.40;;;;;;5106447;28;34270;-75
2022/03/31 12:26:13;;;;;;;4.38;3.88;;;9.20;38.20;;;;;;5102558;28;34150;-77
2022/03/31 12:28:42;;;;;;;4.72;3.55;;;9.20;38.30;;;;;;5076066;27;36033;-75
2022/03/31 12:31:20;;;;;;;4.72;3.75;;;9.30;38.50;;;;;;5135352;27;34102;-75
2022/03/31 12:33:49;;;;;;;4.15;3.20;;;9.40;38.50;;;;;;5125098;27;34435;-75
2022/03/31 12:36:15;;;;;;;4.35;3.40;;;9.40;37.90;;;;;;5126017;27;34073;-75
2022/03/31 12:38:46;;;;;;;4.13;3.40;;;9.50;37.90;;;;;;5097785;27;36075;-77
2022/03/31 12:41:17;;;;;;;4.93;3.58;;;9.50;37.80;;;;;;5115323;27;34043;-75
2022/03/31 12:44:09;;;;;;;3.72;3.28;;;9.60;37.70;;;;;;5128618;27;34486;-75
2022/03/31 12:46:39;;;;;;;4.57;3.42;;;9.60;37.70;;;;;;5110552;27;34043;-75
2022/03/31 12:49:10;;;;;;;5.28;3.70;;;9.60;37.60;;;;;;5125746;27;34256;-74
2022/03/31 12:51:52;;;;;;;5.38;4.15;;;9.60;37.70;;;;;;5091522;27;34195;-75
2022/03/31 12:54:27;;;;;;;4.57;3.45;;;9.70;38.50;;;;;;5107436;27;34262;-75
2022/03/31 12:56:56;;;;;;;3.90;3.50;;;9.70;37.70;;;;;;5107132;27;34055;-75